Time,TemperatureF,DewpointF,PressureIn,WindDirection,WindDirectionDegrees,WindSpeedMPH,WindSpeedGustMPH,Humidity,HourlyPrecipIn,Conditions,Clouds,dailyrainin,SolarRadiationWatts/m^2,SoftwareType,DateUTC
2013-01-20 00:02:00,35.0,34.0,-100.00,NE,46,4.0,7.0,98,0.00,,,0.00,0.000000,,2013-01-20 08:02:00,
2013-01-20 00:12:00,35.0,34.0,-100.00,NE,46,4.0,7.0,98,0.00,,,0.00,0.000000,,2013-01-20 08:12:00,
2013-01-20 00:42:00,35.0,34.0,-100.00,NE,56,2.0,5.0,98,0.00,,,0.00,0.000000,,2013-01-20 08:42:00,
2013-01-20 00:52:00,35.0,34.0,-100.00,NE,56,2.0,5.0,98,0.00,,,0.00,0.000000,,2013-01-20 08:52:00,
2013-01-20 01:02:00,35.0,34.0,-100.00,NE,56,2.0,5.0,98,0.00,,,0.00,0.000000,,2013-01-20 09:02:00,
2013-01-20 01:12:00,35.0,34.0,-100.00,NE,56,2.0,5.0,98,0.00,,,0.00,0.000000,,2013-01-20 09:12:00,
2013-01-20 01:33:00,34.0,34.0,-100.00,East,85,2.0,4.0,98,0.00,,,0.00,0.000000,,2013-01-20 09:33:00,
2013-01-20 01:42:00,34.0,34.0,-100.00,East,85,2.0,4.0,98,0.00,,,0.00,0.000000,,2013-01-20 09:42:00,
2013-01-20 01:52:00,34.0,34.0,-100.00,East,85,2.0,4.0,98,0.00,,,0.00,0.000000,,2013-01-20 09:52:00,
2013-01-20 02:02:00,34.0,34.0,-100.00,East,85,2.0,4.0,98,0.00,,,0.00,0.000000,,2013-01-20 10:02:00,
2013-01-20 02:11:00,34.0,34.0,-100.00,East,85,2.0,4.0,98,0.00,,,0.00,0.000000,,2013-01-20 10:11:00,
2013-01-20 02:32:00,32.0,32.0,-100.00,ENE,66,1.0,3.0,98,0.00,,,0.00,0.000000,,2013-01-20 10:32:00,
2013-01-20 02:42:00,32.0,32.0,-100.00,ENE,66,1.0,3.0,98,0.00,,,0.00,0.000000,,2013-01-20 10:42:00,
2013-01-20 02:52:00,32.0,32.0,-100.00,ENE,66,1.0,3.0,98,0.00,,,0.00,0.000000,,2013-01-20 10:52:00,
2013-01-20 03:02:00,32.0,32.0,-100.00,ENE,66,1.0,3.0,98,0.00,,,0.00,0.000000,,2013-01-20 11:02:00,
2013-01-20 03:11:00,32.0,32.0,-100.00,ENE,66,1.0,3.0,98,0.00,,,0.00,0.000000,,2013-01-20 11:11:00,
2013-01-20 03:33:00,31.0,30.0,-100.00,East,80,1.0,3.0,97,0.00,,,0.00,0.000000,,2013-01-20 11:33:00,
2013-01-20 03:43:00,31.0,30.0,-100.00,East,80,1.0,3.0,97,0.00,,,0.00,0.000000,,2013-01-20 11:43:00,
2013-01-20 03:53:00,31.0,30.0,-100.00,East,80,1.0,3.0,97,0.00,,,0.00,0.000000,,2013-01-20 11:53:00,
2013-01-20 04:02:00,31.0,30.0,-100.00,East,80,1.0,3.0,97,0.00,,,0.00,0.000000,,2013-01-20 12:02:00,
2013-01-20 04:11:00,31.0,30.0,-100.00,East,80,1.0,3.0,97,0.00,,,0.00,0.000000,,2013-01-20 12:11:00,
2013-01-20 04:33:00,31.0,31.0,-100.00,East,92,2.0,3.0,98,0.00,,,0.00,0.000000,,2013-01-20 12:33:00,
2013-01-20 04:43:00,31.0,31.0,-100.00,East,92,2.0,3.0,98,0.00,,,0.00,0.000000,,2013-01-20 12:43:00,
2013-01-20 04:53:00,31.0,31.0,-100.00,East,92,2.0,3.0,98,0.00,,,0.00,0.000000,,2013-01-20 12:53:00,
2013-01-20 05:02:00,31.0,31.0,-100.00,East,92,2.0,3.0,98,0.00,,,0.00,0.000000,,2013-01-20 13:02:00,
2013-01-20 05:12:00,31.0,31.0,-100.00,East,92,2.0,3.0,98,0.00,,,0.00,0.000000,,2013-01-20 13:12:00,
2013-01-20 05:33:00,31.0,31.0,-100.00,ENE,59,2.0,4.0,98,0.00,,,0.00,0.000000,,2013-01-20 13:33:00,
2013-01-20 05:43:00,31.0,31.0,-100.00,ENE,59,2.0,4.0,98,0.00,,,0.00,0.000000,,2013-01-20 13:43:00,
2013-01-20 05:53:00,31.0,31.0,-100.00,ENE,59,2.0,4.0,98,0.00,,,0.00,0.000000,,2013-01-20 13:53:00,
2013-01-20 06:02:00,31.0,31.0,-100.00,ENE,59,2.0,4.0,98,0.00,,,0.00,0.000000,,2013-01-20 14:02:00,
2013-01-20 06:12:00,31.0,31.0,-100.00,ENE,59,2.0,4.0,98,0.00,,,0.00,0.000000,,2013-01-20 14:12:00,
2013-01-20 06:33:00,30.0,29.0,-100.00,ESE,116,2.0,3.0,97,0.00,,,0.00,0.000000,,2013-01-20 14:33:00,
2013-01-20 06:43:00,30.0,29.0,-100.00,ESE,116,2.0,3.0,97,0.00,,,0.00,0.000000,,2013-01-20 14:43:00,
2013-01-20 06:53:00,30.0,29.0,-100.00,ESE,116,2.0,3.0,97,0.00,,,0.00,0.000000,,2013-01-20 14:53:00,
2013-01-20 07:02:00,30.0,29.0,-100.00,ESE,116,2.0,3.0,97,0.00,,,0.00,0.000000,,2013-01-20 15:02:00,
2013-01-20 07:12:00,30.0,29.0,-100.00,ESE,116,2.0,3.0,97,0.00,,,0.00,0.000000,,2013-01-20 15:12:00,
2013-01-20 07:33:00,29.0,28.0,-100.00,East,99,1.0,3.0,97,0.00,,,-99.99,0.000000,,2013-01-20 15:33:00,
2013-01-20 07:43:00,29.0,28.0,-100.00,East,99,1.0,3.0,97,0.00,,,-99.99,0.000000,,2013-01-20 15:43:00,
2013-01-20 07:53:00,29.0,28.0,-100.00,East,99,1.0,3.0,97,0.00,,,-99.99,0.000000,,2013-01-20 15:53:00,
2013-01-20 08:02:00,29.0,28.0,-100.00,East,99,1.0,3.0,97,0.00,,,-99.99,0.000000,,2013-01-20 16:02:00,
2013-01-20 08:11:00,29.0,28.0,-100.00,East,99,1.0,3.0,97,0.00,,,-99.99,0.000000,,2013-01-20 16:11:00,
2013-01-20 08:33:00,29.0,28.0,-100.00,SE,137,2.0,3.0,97,0.00,,,0.00,6.000000,,2013-01-20 16:33:00,
2013-01-20 08:43:00,29.0,28.0,-100.00,SE,137,2.0,3.0,97,0.00,,,0.00,6.000000,,2013-01-20 16:43:00,
2013-01-20 08:53:00,29.0,28.0,-100.00,SE,137,2.0,3.0,97,0.00,,,0.00,6.000000,,2013-01-20 16:53:00,
2013-01-20 09:02:00,29.0,28.0,-100.00,SE,137,2.0,3.0,97,0.00,,,0.00,6.000000,,2013-01-20 17:02:00,
2013-01-20 09:12:00,29.0,28.0,-100.00,SE,137,2.0,3.0,97,0.00,,,0.00,6.000000,,2013-01-20 17:12:00,
2013-01-20 09:33:00,31.0,30.0,-100.00,ESE,109,2.0,3.0,97,0.00,,,0.00,24.000000,,2013-01-20 17:33:00,
2013-01-20 09:43:00,31.0,30.0,-100.00,ESE,109,2.0,3.0,97,0.00,,,0.00,24.000000,,2013-01-20 17:43:00,
2013-01-20 09:53:00,31.0,30.0,-100.00,ESE,109,2.0,3.0,97,0.00,,,0.00,24.000000,,2013-01-20 17:53:00,
2013-01-20 10:02:00,31.0,30.0,-100.00,ESE,109,2.0,3.0,97,0.00,,,0.00,24.000000,,2013-01-20 18:02:00,
2013-01-20 10:12:00,31.0,30.0,-100.00,ESE,109,2.0,3.0,97,0.00,,,0.00,24.000000,,2013-01-20 18:12:00,
2013-01-20 10:33:00,36.0,35.0,-100.00,ENE,61,2.0,4.0,95,0.00,,,0.00,315.000000,,2013-01-20 18:33:00,
2013-01-20 10:43:00,36.0,35.0,-100.00,ENE,61,2.0,4.0,95,0.00,,,0.00,315.000000,,2013-01-20 18:43:00,
2013-01-20 10:53:00,36.0,35.0,-100.00,ENE,61,2.0,4.0,95,0.00,,,0.00,315.000000,,2013-01-20 18:53:00,
2013-01-20 11:02:00,36.0,35.0,-100.00,ENE,61,2.0,4.0,95,0.00,,,0.00,315.000000,,2013-01-20 19:02:00,
2013-01-20 11:12:00,36.0,35.0,-100.00,ENE,61,2.0,4.0,95,0.00,,,0.00,315.000000,,2013-01-20 19:12:00,
2013-01-20 11:33:00,46.0,43.0,-100.00,East,101,1.0,3.0,90,0.00,,,0.00,476.000000,,2013-01-20 19:33:00,
2013-01-20 11:43:00,46.0,43.0,-100.00,East,101,1.0,3.0,90,0.00,,,0.00,476.000000,,2013-01-20 19:43:00,
2013-01-20 11:53:00,46.0,43.0,-100.00,East,101,1.0,3.0,90,0.00,,,0.00,476.000000,,2013-01-20 19:53:00,
2013-01-20 12:02:00,46.0,43.0,-100.00,East,101,1.0,3.0,90,0.00,,,0.00,476.000000,,2013-01-20 20:02:00,
2013-01-20 12:12:00,46.0,43.0,-100.00,East,101,1.0,3.0,90,0.00,,,0.00,476.000000,,2013-01-20 20:12:00,
2013-01-20 12:42:00,49.0,43.0,-100.00,NE,56,1.0,2.0,81,0.00,,,0.00,543.000000,,2013-01-20 20:42:00,
2013-01-20 12:53:00,49.0,43.0,-100.00,NE,56,1.0,2.0,81,0.00,,,0.00,543.000000,,2013-01-20 20:53:00,
2013-01-20 13:03:00,49.0,43.0,-100.00,NE,56,1.0,2.0,81,0.00,,,0.00,543.000000,,2013-01-20 21:03:00,
2013-01-20 13:12:00,49.0,43.0,-100.00,NE,56,1.0,2.0,81,0.00,,,0.00,543.000000,,2013-01-20 21:12:00,
2013-01-20 13:33:00,55.0,42.0,-100.00,NE,44,2.0,2.0,61,0.00,,,0.00,537.000000,,2013-01-20 21:33:00,
2013-01-20 13:43:00,55.0,42.0,-100.00,NE,44,2.0,2.0,61,0.00,,,0.00,537.000000,,2013-01-20 21:43:00,
2013-01-20 13:53:00,55.0,42.0,-100.00,NE,44,2.0,2.0,61,0.00,,,0.00,537.000000,,2013-01-20 21:53:00,
2013-01-20 14:33:00,57.0,42.0,-100.00,North,350,2.0,3.0,57,0.00,,,0.00,467.000000,,2013-01-20 22:33:00,
2013-01-20 14:43:00,57.0,42.0,-100.00,North,350,2.0,3.0,57,0.00,,,0.00,467.000000,,2013-01-20 22:43:00,
2013-01-20 14:53:00,57.0,42.0,-100.00,North,350,2.0,3.0,57,0.00,,,0.00,467.000000,,2013-01-20 22:53:00,
2013-01-20 15:03:00,57.0,42.0,-100.00,North,350,2.0,3.0,57,0.00,,,0.00,467.000000,,2013-01-20 23:03:00,
2013-01-20 15:12:00,57.0,42.0,-100.00,North,350,2.0,3.0,57,0.00,,,0.00,467.000000,,2013-01-20 23:12:00,
2013-01-20 15:33:00,59.0,43.0,-100.00,NE,38,2.0,3.0,56,0.00,,,0.00,352.000000,,2013-01-20 23:33:00,
2013-01-20 16:33:00,54.0,43.0,-100.00,NNE,29,3.0,4.0,65,-99.99,,,0.00,201.000000,,2013-01-21 00:33:00,
2013-01-20 16:43:00,54.0,43.0,-100.00,NNE,29,3.0,4.0,65,-99.99,,,0.00,201.000000,,2013-01-21 00:43:00,
2013-01-20 16:53:00,54.0,43.0,-100.00,NNE,29,3.0,4.0,65,-99.99,,,0.00,201.000000,,2013-01-21 00:53:00,
2013-01-20 17:02:00,54.0,43.0,-100.00,NNE,29,3.0,4.0,65,-99.99,,,0.00,201.000000,,2013-01-21 01:02:00,
2013-01-20 17:12:00,54.0,43.0,-100.00,NNE,29,3.0,4.0,65,-99.99,,,0.00,201.000000,,2013-01-21 01:12:00,
2013-01-20 17:33:00,45.0,37.0,-100.00,North,2,2.0,5.0,74,0.00,,,0.00,38.000000,,2013-01-21 01:33:00,
2013-01-20 17:43:00,45.0,37.0,-100.00,North,2,2.0,5.0,74,0.00,,,0.00,38.000000,,2013-01-21 01:43:00,
2013-01-20 17:53:00,45.0,37.0,-100.00,North,2,2.0,5.0,74,0.00,,,0.00,38.000000,,2013-01-21 01:53:00,
2013-01-20 18:02:00,45.0,37.0,-100.00,North,2,2.0,5.0,74,0.00,,,0.00,38.000000,,2013-01-21 02:02:00,
2013-01-20 18:12:00,45.0,37.0,-100.00,North,2,2.0,5.0,74,0.00,,,0.00,38.000000,,2013-01-21 02:12:00,
2013-01-20 18:33:00,41.0,39.0,-100.00,ENE,57,2.0,4.0,91,0.00,,,0.00,1.000000,,2013-01-21 02:33:00,
2013-01-20 18:43:00,41.0,39.0,-100.00,ENE,57,2.0,4.0,91,0.00,,,0.00,1.000000,,2013-01-21 02:43:00,
2013-01-20 18:53:00,41.0,39.0,-100.00,ENE,57,2.0,4.0,91,0.00,,,0.00,1.000000,,2013-01-21 02:53:00,
2013-01-20 19:02:00,41.0,39.0,-100.00,ENE,57,2.0,4.0,91,0.00,,,0.00,1.000000,,2013-01-21 03:02:00,
2013-01-20 19:11:00,41.0,39.0,-100.00,ENE,57,2.0,4.0,91,0.00,,,0.00,1.000000,,2013-01-21 03:11:00,
2013-01-20 19:33:00,41.0,39.0,-100.00,ENE,63,2.0,4.0,93,0.00,,,0.00,0.000000,,2013-01-21 03:33:00,
2013-01-20 19:43:00,41.0,39.0,-100.00,ENE,63,2.0,4.0,93,0.00,,,0.00,0.000000,,2013-01-21 03:43:00,
2013-01-20 19:53:00,41.0,39.0,-100.00,ENE,63,2.0,4.0,93,0.00,,,0.00,0.000000,,2013-01-21 03:53:00,
2013-01-20 20:02:00,41.0,39.0,-100.00,ENE,63,2.0,4.0,93,0.00,,,0.00,0.000000,,2013-01-21 04:02:00,
2013-01-20 20:12:00,41.0,39.0,-100.00,ENE,63,2.0,4.0,93,0.00,,,0.00,0.000000,,2013-01-21 04:12:00,
2013-01-20 20:33:00,40.0,39.0,-100.00,SE,140,1.0,3.0,95,0.00,,,0.00,0.000000,,2013-01-21 04:33:00,
2013-01-20 20:43:00,40.0,39.0,-100.00,SE,140,1.0,3.0,95,0.00,,,0.00,0.000000,,2013-01-21 04:43:00,
2013-01-20 20:53:00,40.0,39.0,-100.00,SE,140,1.0,3.0,95,0.00,,,0.00,0.000000,,2013-01-21 04:53:00,
2013-01-20 21:03:00,40.0,39.0,-100.00,SE,140,1.0,3.0,95,0.00,,,0.00,0.000000,,2013-01-21 05:03:00,
2013-01-20 21:12:00,40.0,39.0,-100.00,SE,140,1.0,3.0,95,0.00,,,0.00,0.000000,,2013-01-21 05:12:00,
2013-01-20 21:34:00,39.0,37.0,-100.00,SE,124,2.0,3.0,94,0.00,,,0.00,0.000000,,2013-01-21 05:34:00,
2013-01-20 21:42:00,39.0,37.0,-100.00,SE,124,2.0,3.0,94,0.00,,,0.00,0.000000,,2013-01-21 05:42:00,
2013-01-20 21:53:00,39.0,37.0,-100.00,SE,124,2.0,3.0,94,0.00,,,0.00,0.000000,,2013-01-21 05:53:00,
2013-01-20 22:02:00,39.0,37.0,-100.00,SE,124,2.0,3.0,94,0.00,,,0.00,0.000000,,2013-01-21 06:02:00,
2013-01-20 22:12:00,39.0,37.0,-100.00,SE,124,2.0,3.0,94,0.00,,,0.00,0.000000,,2013-01-21 06:12:00,
2013-01-20 22:33:00,42.0,39.0,-100.00,ESE,122,2.0,4.0,88,0.00,,,0.00,0.000000,,2013-01-21 06:33:00,
2013-01-20 22:43:00,42.0,39.0,-100.00,ESE,122,2.0,4.0,88,0.00,,,0.00,0.000000,,2013-01-21 06:43:00,
2013-01-20 22:53:00,42.0,39.0,-100.00,ESE,122,2.0,4.0,88,0.00,,,0.00,0.000000,,2013-01-21 06:53:00,
2013-01-20 23:02:00,42.0,39.0,-100.00,ESE,122,2.0,4.0,88,0.00,,,0.00,0.000000,,2013-01-21 07:02:00,
2013-01-20 23:11:00,42.0,39.0,-100.00,ESE,122,2.0,4.0,88,0.00,,,0.00,0.000000,,2013-01-21 07:11:00,
2013-01-20 23:33:00,41.0,37.0,-100.00,SE,125,2.0,4.0,86,0.00,,,0.00,0.000000,,2013-01-21 07:33:00,
2013-01-20 23:42:00,41.0,37.0,-100.00,SE,125,2.0,4.0,86,0.00,,,0.00,0.000000,,2013-01-21 07:42:00,
2013-01-20 23:53:00,41.0,37.0,-100.00,SE,125,2.0,4.0,86,0.00,,,0.00,0.000000,,2013-01-21 07:53:00,